Time;durP1;ratioP1;P1;durP2;ratioP2;P2;SDS_P1;SDS_P2;PMS_P1;PMS_P2;Temp;Humidity;BMP_temperature;BMP_pressure;BME280_temperature;BME280_humidity;BME280_pressure;Samples;Min_cycle;Max_cycle;Signal;HPM_P1;HPM_P2
2021/10/24 00:02:09;;;;;;;21.67;11.30;;;6.20;99.20;;;3.73;100.00;101762.16;5028142;28;20041;-88
2021/10/24 00:04:38;;;;;;;22.20;10.63;;;6.20;99.20;;;3.74;100.00;101763.03;5028025;28;20490;-89
2021/10/24 00:07:05;;;;;;;19.42;10.43;;;6.20;99.10;;;3.71;100.00;101756.00;5027806;28;20140;-88
2021/10/24 00:09:33;;;;;;;18.33;10.55;;;6.20;99.20;;;3.68;100.00;101758.94;5030002;28;20098;-88
2021/10/24 00:12:01;;;;;;;19.92;10.30;;;6.20;99.30;;;3.70;100.00;101754.31;5047913;28;20527;-88
2021/10/24 00:14:28;;;;;;;18.48;10.45;;;6.20;99.20;;;3.69;100.00;101757.94;5047829;28;20072;-88
2021/10/24 00:16:56;;;;;;;21.58;10.65;;;6.20;99.20;;;3.68;100.00;101753.56;5047530;28;20091;-89
2021/10/24 00:19:23;;;;;;;17.88;9.48;;;6.20;99.20;;;3.68;100.00;101758.94;5047532;28;20512;-89
2021/10/24 00:21:52;;;;;;;20.27;10.75;;;6.20;99.10;;;3.61;100.00;101752.25;5047761;28;20052;-88
2021/10/24 00:24:19;;;;;;;16.85;10.02;;;6.10;99.10;;;3.50;100.00;101753.91;5047746;28;20672;-88
2021/10/24 00:26:46;;;;;;;19.50;10.80;;;6.10;98.90;;;3.52;100.00;101754.66;5047754;28;20122;-89
2021/10/24 00:29:14;;;;;;;17.10;9.45;;;6.10;99.10;;;3.56;100.00;101749.03;5028881;28;20057;-89
2021/10/24 00:31:41;;;;;;;15.35;9.45;;;6.10;99.20;;;3.60;100.00;101753.22;5031710;28;20528;-87
2021/10/24 00:34:09;;;;;;;17.08;9.45;;;6.00;99.10;;;3.62;100.00;101754.00;5031349;28;20135;-88
2021/10/24 00:36:36;;;;;;;17.00;9.43;;;6.10;99.20;;;3.61;100.00;101752.25;5031303;28;20085;-88
2021/10/24 00:39:05;;;;;;;15.65;9.02;;;6.00;99.00;;;3.64;100.00;101752.06;5030770;28;20509;-89
2021/10/24 00:41:33;;;;;;;15.75;9.40;;;6.10;99.20;;;3.66;100.00;101745.59;5030006;28;20045;-88
2021/10/24 00:44:17;;;;;;;21.45;9.38;;;6.00;99.20;;;3.64;100.00;101746.69;5029450;28;20052;-88
2021/10/24 00:46:45;;;;;;;16.10;9.10;;;6.00;99.20;;;3.61;100.00;101746.88;5031308;28;20046;-88
2021/10/24 00:49:12;;;;;;;17.27;9.50;;;6.00;99.00;;;3.57;100.00;101742.69;5029433;28;20583;-87
2021/10/24 00:51:39;;;;;;;17.48;10.05;;;6.00;99.10;;;3.53;100.00;101745.59;5031178;28;20072;-88
2021/10/24 00:54:11;;;;;;;17.63;9.27;;;6.00;99.00;;;3.51;100.00;101736.75;5029801;28;20049;-89
2021/10/24 00:56:40;;;;;;;17.52;9.30;;;6.00;99.30;;;3.52;100.00;101743.00;5031119;28;20041;-89
2021/10/24 00:59:08;;;;;;;17.90;8.52;;;5.90;99.20;;;3.57;100.00;101746.22;5030077;28;20083;-89
2021/10/24 01:01:35;;;;;;;13.93;8.60;;;6.00;99.30;;;3.58;100.00;101736.31;5029446;28;20077;-88
2021/10/24 01:04:04;;;;;;;17.20;8.75;;;6.00;99.30;;;3.60;100.00;101743.34;5030931;28;20069;-89
2021/10/24 01:06:33;;;;;;;13.32;8.25;;;5.90;99.40;;;3.57;100.00;101746.22;5029427;28;20096;-88
2021/10/24 01:09:00;;;;;;;12.65;7.80;;;6.00;99.30;;;3.59;100.00;101738.06;5029133;28;20502;-89
2021/10/24 01:11:29;;;;;;;13.10;7.90;;;6.10;99.50;;;3.64;100.00;101727.84;5030744;28;20037;-89
2021/10/24 01:13:58;;;;;;;13.68;7.03;;;6.10;99.60;;;3.70;100.00;101725.53;5029113;28;20059;-89
2021/10/24 01:16:26;;;;;;;11.88;6.75;;;6.00;99.60;;;3.79;100.00;101728.53;5028492;28;20048;-88
2021/10/24 01:18:53;;;;;;;11.75;6.50;;;6.00;99.60;;;3.87;100.00;101731.56;5029067;28;20068;-88
2021/10/24 01:21:22;;;;;;;12.48;6.35;;;6.00;99.60;;;3.89;100.00;101726.91;5029054;28;20046;-89
2021/10/24 01:23:49;;;;;;;11.98;6.50;;;6.10;99.90;;;3.91;100.00;101723.13;5030608;28;20519;-89
2021/10/24 01:26:17;;;;;;;11.65;6.40;;;6.10;99.90;;;3.90;100.00;101718.72;5028740;28;20053;-88
2021/10/24 01:28:44;;;;;;;11.85;5.43;;;6.10;99.80;;;3.92;100.00;101719.47;5010921;28;20577;-87
2021/10/24 01:31:12;;;;;;;14.25;5.82;;;6.10;99.90;;;3.94;100.00;101713.09;5009255;28;20138;-88
2021/10/24 01:33:39;;;;;;;10.68;5.43;;;6.10;99.90;;;3.91;100.00;101706.97;5026938;28;20240;-89
2021/10/24 01:36:10;;;;;;;10.93;5.72;;;6.20;99.90;;;3.87;100.00;101702.78;5028810;28;20141;-88
2021/10/24 01:38:44;;;;;;;10.60;6.05;;;6.20;99.90;;;3.88;100.00;101704.53;5028825;28;20053;-89
2021/10/24 01:41:12;;;;;;;10.25;5.47;;;6.20;99.90;;;3.93;100.00;101706.88;5028288;28;20050;-88
2021/10/24 01:43:39;;;;;;;10.82;5.30;;;6.20;99.90;;;3.93;100.00;101701.47;5030050;28;20049;-89
2021/10/24 01:46:07;;;;;;;10.45;5.65;;;6.20;99.90;;;3.96;100.00;101690.50;5028670;28;20041;-88
2021/10/24 01:48:35;;;;;;;11.60;6.15;;;6.20;99.90;;;3.97;100.00;101697.59;5027625;28;20107;-88
2021/10/24 01:51:03;;;;;;;10.43;5.22;;;6.20;99.90;;;3.96;100.00;101689.59;5028474;28;20045;-88
2021/10/24 01:53:34;;;;;;;11.60;5.07;;;6.30;99.90;;;3.97;100.00;101688.66;5028463;28;20046;-88
2021/10/24 01:56:04;;;;;;;8.32;5.07;;;6.20;99.90;;;4.00;100.00;101683.03;5028495;28;20060;-87
2021/10/24 01:58:33;;;;;;;8.45;5.35;;;6.20;99.90;;;4.01;100.00;101676.69;5028229;28;20049;-89
2021/10/24 02:01:01;;;;;;;13.02;5.35;;;6.30;99.90;;;4.02;100.00;101681.97;5027967;28;20572;-88
2021/10/24 02:03:47;;;;;;;10.25;5.40;;;6.30;99.90;;;4.06;100.00;101677.19;5028371;28;20068;-88
2021/10/24 02:06:47;;;;;;;8.35;4.95;;;6.30;99.90;;;4.11;100.00;101675.00;5014168;28;20045;-88
2021/10/24 02:09:15;;;;;;;10.57;5.68;;;6.30;99.90;;;4.14;100.00;101661.31;5028968;28;20049;-88
2021/10/24 02:11:43;;;;;;;10.73;5.45;;;6.30;99.90;;;4.21;100.00;101659.91;5028104;28;20045;-89
2021/10/24 02:14:11;;;;;;;11.95;5.03;;;6.40;99.90;;;4.25;100.00;101660.53;5028113;28;20119;-88
2021/10/24 02:16:43;;;;;;;10.18;5.30;;;6.50;99.90;;;4.26;100.00;101649.59;5028223;28;20049;-89
2021/10/24 02:19:11;;;;;;;11.35;5.65;;;6.50;99.90;;;4.23;100.00;101657.09;5028094;28;20641;-89
2021/10/24 02:21:38;;;;;;;10.00;5.68;;;6.50;99.90;;;4.14;100.00;101658.63;5028417;28;20049;-88
2021/10/24 02:24:06;;;;;;;10.73;5.75;;;6.50;99.90;;;4.09;100.00;101652.72;5028502;28;20781;-89
2021/10/24 02:26:33;;;;;;;12.70;5.55;;;6.50;99.90;;;4.05;100.00;101654.78;5027520;28;20050;-90
2021/10/24 02:29:02;;;;;;;11.10;5.03;;;6.50;99.90;;;4.01;100.00;101650.59;5027917;28;20390;-90
2021/10/24 02:31:30;;;;;;;9.60;5.55;;;6.50;99.90;;;4.05;100.00;101648.53;5027391;28;20474;-89
2021/10/24 02:34:10;;;;;;;10.97;5.80;;;6.40;99.90;;;4.04;100.00;101647.69;5028157;28;20049;-88
2021/10/24 02:36:51;;;;;;;10.10;5.30;;;6.50;99.90;;;4.08;100.00;101645.63;5027806;28;20136;-89
2021/10/24 02:39:19;;;;;;;8.80;5.30;;;6.50;99.90;;;4.10;100.00;101640.97;5027518;28;20037;-90
2021/10/24 02:41:46;;;;;;;11.68;5.85;;;6.50;99.90;;;4.15;100.00;101641.50;5028173;28;20103;-89
2021/10/24 02:44:16;;;;;;;11.93;5.13;;;6.50;99.90;;;4.17;100.00;101646.75;5027577;28;20046;-88
2021/10/24 02:46:51;;;;;;;13.80;5.13;;;6.50;99.90;;;4.19;100.00;101634.91;5027556;28;20124;-88
2021/10/24 02:49:20;;;;;;;8.52;5.25;;;6.50;99.90;;;4.22;100.00;101636.50;5027293;28;20060;-89
2021/10/24 02:51:53;;;;;;;10.13;5.57;;;6.50;99.90;;;4.24;100.00;101638.09;5026883;28;20061;-88
2021/10/24 02:54:22;;;;;;;10.40;4.78;;;6.50;99.90;;;4.24;100.00;101632.69;5027393;28;20107;-89
2021/10/24 02:56:50;;;;;;;10.60;5.78;;;6.50;99.90;;;4.27;100.00;101637.00;5027558;28;20049;-89
2021/10/24 02:59:20;;;;;;;13.68;5.28;;;6.50;99.90;;;4.29;100.00;101626.97;5028508;28;20033;-89
2021/10/24 03:01:48;;;;;;;10.82;5.95;;;6.60;99.90;;;4.35;100.00;101634.59;5027067;28;20053;-88
2021/10/24 03:04:16;;;;;;;16.55;6.05;;;6.60;99.90;;;4.34;100.00;101627.50;5027212;28;20049;-89
2021/10/24 03:06:48;;;;;;;8.27;5.47;;;6.60;99.90;;;4.30;100.00;101621.47;5027034;28;20669;-89
2021/10/24 03:09:15;;;;;;;11.60;6.45;;;6.60;99.90;;;4.40;100.00;101621.63;5026703;28;20080;-88
2021/10/24 03:11:43;;;;;;;9.40;5.47;;;6.70;99.90;;;4.43;100.00;101620.53;5027053;28;20092;-89
2021/10/24 03:14:14;;;;;;;9.35;5.50;;;6.70;99.90;;;4.43;100.00;101615.13;5026804;28;20049;-89
2021/10/24 03:16:43;;;;;;;11.50;5.35;;;6.70;99.90;;;4.43;100.00;101612.44;5026916;28;20052;-89
2021/10/24 03:19:12;;;;;;;12.10;5.97;;;6.70;99.90;;;4.50;100.00;101613.69;5026241;28;20049;-89
2021/10/24 03:21:44;;;;;;;17.50;6.28;;;6.70;99.90;;;4.56;100.00;101610.53;5046930;28;20067;-89
2021/10/24 03:24:13;;;;;;;15.75;5.85;;;6.80;99.90;;;4.59;100.00;101609.41;5046731;28;20096;-89
2021/10/24 03:26:40;;;;;;;15.68;5.68;;;6.80;99.90;;;4.63;100.00;101610.94;5063480;28;20044;-88
2021/10/24 03:29:11;;;;;;;14.23;5.45;;;6.80;99.90;;;4.65;100.00;101608.97;5046537;28;20587;-88
2021/10/24 03:31:39;;;;;;;10.93;5.70;;;6.80;99.90;;;4.69;100.00;101619.38;5014373;28;20042;-89
2021/10/24 03:34:08;;;;;;;14.30;6.53;;;6.90;99.90;;;4.74;100.00;101615.47;5019887;28;20417;-88
2021/10/24 03:36:35;;;;;;;15.35;5.53;;;6.90;99.90;;;4.80;100.00;101609.63;5026774;28;20056;-88
2021/10/24 03:39:05;;;;;;;14.57;6.18;;;6.90;99.90;;;4.82;100.00;101613.03;5026779;28;20115;-89
2021/10/24 03:41:33;;;;;;;10.82;5.88;;;7.00;99.90;;;4.81;100.00;101614.84;5026705;28;20041;-89
2021/10/24 03:44:00;;;;;;;12.07;6.25;;;7.00;99.90;;;4.83;100.00;101612.06;5028005;28;20048;-89
2021/10/24 03:46:31;;;;;;;14.35;6.10;;;7.00;99.90;;;4.86;100.00;101617.22;5026579;28;20464;-89
2021/10/24 03:48:58;;;;;;;13.25;6.13;;;7.00;99.90;;;4.90;100.00;101613.28;5026487;28;20520;-88
2021/10/24 03:51:27;;;;;;;16.08;6.32;;;7.00;99.90;;;4.89;100.00;101616.97;5045149;28;20048;-89
2021/10/24 03:53:54;;;;;;;14.45;6.07;;;7.10;99.90;;;4.87;100.00;101616.22;5046611;28;20053;-88
2021/10/24 03:56:22;;;;;;;14.95;6.03;;;7.10;99.90;;;4.87;100.00;101618.91;5046541;28;20822;-89
2021/10/24 03:58:49;;;;;;;11.63;6.00;;;7.10;99.90;;;4.85;100.00;101607.38;5046085;28;20439;-88
2021/10/24 04:01:18;;;;;;;18.90;6.40;;;7.10;99.90;;;4.84;100.00;101609.25;5046262;28;20041;-89
2021/10/24 04:03:46;;;;;;;16.52;6.78;;;7.10;99.90;;;4.88;100.00;101609.84;5048486;28;20485;-89
2021/10/24 04:06:14;;;;;;;15.30;6.65;;;7.10;99.90;;;4.88;100.00;101609.84;5049466;28;20049;-89
2021/10/24 04:08:45;;;;;;;18.98;6.57;;;7.10;99.90;;;4.83;100.00;101606.66;5026787;28;20077;-89
2021/10/24 04:11:12;;;;;;;16.38;6.60;;;7.10;99.90;;;4.77;100.00;101602.59;5010625;28;20554;-88
2021/10/24 04:13:40;;;;;;;13.68;6.22;;;7.10;99.90;;;4.72;100.00;101598.53;5010745;28;20415;-89
2021/10/24 04:16:13;;;;;;;13.18;6.53;;;7.10;99.90;;;4.67;100.00;101602.47;5010400;28;20046;-89
2021/10/24 04:18:59;;;;;;;11.52;5.93;;;7.10;99.90;;;4.57;100.00;101596.09;5011659;28;20139;-89
2021/10/24 04:21:27;;;;;;;11.77;5.68;;;7.10;99.90;;;4.47;100.00;101590.53;5010551;28;20141;-89
2021/10/24 04:23:56;;;;;;;15.55;6.30;;;7.00;99.90;;;4.46;100.00;101594.19;5021788;28;20766;-89
2021/10/24 04:26:24;;;;;;;14.95;6.35;;;7.00;99.90;;;4.43;100.00;101593.56;5030257;28;20672;-89
2021/10/24 04:28:51;;;;;;;12.60;5.75;;;7.00;99.90;;;4.37;100.00;101586.81;5029729;28;20192;-88
2021/10/24 04:31:19;;;;;;;12.27;5.60;;;6.90;99.90;;;4.37;100.00;101588.66;5030203;28;20045;-88
2021/10/24 04:33:47;;;;;;;10.80;5.80;;;6.90;99.90;;;4.35;100.00;101585.22;5029807;28;20057;-88
2021/10/24 04:36:15;;;;;;;14.48;5.90;;;6.80;99.90;;;4.28;100.00;101584.81;5029495;28;20095;-88
2021/10/24 04:38:45;;;;;;;15.98;6.22;;;6.80;99.90;;;4.22;100.00;101578.06;5009980;28;20052;-88
2021/10/24 04:41:14;;;;;;;14.27;5.88;;;6.80;99.90;;;4.15;100.00;101579.53;5010077;28;20054;-88
2021/10/24 04:43:42;;;;;;;11.93;6.00;;;6.70;99.90;;;4.09;100.00;101585.38;5010079;28;20464;-88
2021/10/24 04:46:14;;;;;;;9.80;5.35;;;6.70;99.90;;;4.09;100.00;101574.59;5009986;28;20050;-89
2021/10/24 04:48:42;;;;;;;12.57;5.63;;;6.70;99.90;;;4.06;100.00;101585.63;5011256;28;20046;-89
2021/10/24 04:51:09;;;;;;;12.65;6.20;;;6.60;99.90;;;4.06;100.00;101569.47;5010094;28;20048;-89
2021/10/24 04:53:38;;;;;;;11.48;5.32;;;6.60;99.90;;;4.05;100.00;101578.50;5025128;28;20136;-89
2021/10/24 04:56:05;;;;;;;12.75;5.70;;;6.50;99.90;;;4.00;100.00;101573.47;5029459;28;20060;-89
2021/10/24 04:58:35;;;;;;;12.88;5.75;;;6.50;99.90;;;3.97;100.00;101570.16;5029479;28;20049;-87
2021/10/24 05:01:04;;;;;;;9.65;5.13;;;6.50;99.90;;;3.96;100.00;101571.09;5029449;28;20056;-89
2021/10/24 05:03:32;;;;;;;11.10;5.75;;;6.40;99.90;;;3.94;100.00;101567.69;5029557;28;20041;-88
2021/10/24 05:05:59;;;;;;;11.70;5.82;;;6.40;99.90;;;3.96;100.00;101565.72;5029439;28;20096;-89
2021/10/24 05:08:29;;;;;;;10.30;5.33;;;6.40;99.90;;;3.90;100.00;101558.97;5029337;28;20597;-88
2021/10/24 05:10:57;;;;;;;10.48;5.50;;;6.30;99.90;;;3.85;100.00;101566.56;5028955;28;20057;-89
2021/10/24 05:13:24;;;;;;;12.70;5.95;;;6.30;99.90;;;3.81;100.00;101554.25;5029275;28;20042;-88
2021/10/24 05:15:53;;;;;;;9.48;5.15;;;6.30;99.90;;;3.83;100.00;101552.34;5045477;22;20049;-88
2021/10/24 05:18:21;;;;;;;10.63;5.32;;;6.20;99.90;;;3.81;100.00;101560.53;5010649;28;20053;-87
2021/10/24 05:20:48;;;;;;;14.38;5.40;;;6.30;99.90;;;3.79;100.00;101556.22;5012691;28;20095;-88
2021/10/24 05:23:15;;;;;;;12.15;5.70;;;6.20;99.90;;;3.75;100.00;101560.13;5012476;28;20421;-87
2021/10/24 05:25:43;;;;;;;9.80;4.78;;;6.20;99.90;;;3.71;100.00;101556.78;5012589;28;20052;-88
2021/10/24 05:28:11;;;;;;;13.63;5.95;;;6.10;99.90;;;3.69;100.00;101553.34;5025246;28;20045;-87
2021/10/24 05:30:38;;;;;;;10.43;5.05;;;6.10;99.90;;;3.71;100.00;101559.47;5004130;28;20152;-87
2021/10/24 05:33:07;;;;;;;10.15;5.20;;;6.10;99.90;;;3.74;100.00;101558.41;5012284;28;20053;-87
2021/10/24 05:35:52;;;;;;;11.25;6.07;;;6.10;99.90;;;3.68;100.00;101554.34;5028928;28;20042;-88
2021/10/24 05:38:21;;;;;;;10.73;6.15;;;6.10;99.90;;;3.64;100.00;101556.41;5012117;28;20057;-88
2021/10/24 05:40:59;;;;;;;9.38;5.32;;;6.00;99.90;;;3.60;100.00;101556.72;5012506;28;20057;-87
2021/10/24 05:43:27;;;;;;;11.75;6.18;;;6.00;99.90;;;3.60;100.00;101551.34;5011798;28;20048;-87
2021/10/24 05:45:54;;;;;;;14.85;6.70;;;6.00;99.90;;;3.60;100.00;101549.53;5012129;28;20425;-87
2021/10/24 05:48:23;;;;;;;15.60;6.38;;;6.00;99.90;;;3.51;100.00;101547.53;5011903;28;20119;-88
2021/10/24 05:51:00;;;;;;;15.30;7.85;;;6.00;99.90;;;3.51;100.00;101543.00;5012173;28;20053;-88
2021/10/24 05:53:30;;;;;;;18.73;9.10;;;5.90;99.90;;;3.49;100.00;101539.56;5011995;28;20045;-87
2021/10/24 05:55:58;;;;;;;18.80;9.75;;;5.90;99.90;;;3.47;100.00;101538.81;5011893;28;20053;-88
2021/10/24 05:58:25;;;;;;;22.60;11.73;;;5.90;99.90;;;3.46;100.00;101533.53;5029839;28;20134;-88
2021/10/24 06:01:05;;;;;;;23.08;11.43;;;5.90;99.90;;;3.40;100.00;101534.84;5011574;28;20452;-88
2021/10/24 06:03:53;;;;;;;19.35;10.70;;;5.80;99.90;;;3.39;100.00;101532.25;5029785;28;20532;-88
2021/10/24 06:06:44;;;;;;;;;;;6.00;99.90;;;3.39;100.00;101532.25;5029371;28;20045;-87
2021/10/24 06:09:11;;;;;;;18.30;8.90;;;5.80;99.90;;;3.35;100.00;101531.66;5027971;28;19931;-88
2021/10/24 06:11:47;;;;;;;15.60;8.45;;;5.80;99.90;;;3.39;100.00;101527.75;5029569;28;20041;-88
2021/10/24 06:14:15;;;;;;;14.35;7.45;;;5.80;99.90;;;3.40;100.00;101524.06;5011610;28;20392;-88
2021/10/24 06:16:43;;;;;;;13.45;7.65;;;5.80;99.90;;;3.41;100.00;101525.81;5028066;28;20092;-87
2021/10/24 06:19:11;;;;;;;14.00;7.35;;;5.80;99.90;;;3.40;100.00;101518.69;5029401;28;20038;-88
2021/10/24 06:21:39;;;;;;;13.23;6.63;;;5.80;99.90;;;3.39;100.00;101517.00;5011391;28;20046;-87
2021/10/24 06:24:06;;;;;;;15.63;7.03;;;5.80;99.90;;;3.43;100.00;101523.00;5011491;28;20060;-87
2021/10/24 06:26:33;;;;;;;14.05;6.68;;;5.80;99.90;;;3.53;100.00;101513.28;5011279;28;20054;-87
2021/10/24 06:29:01;;;;;;;15.30;7.03;;;5.80;99.90;;;3.57;100.00;101513.91;5029054;28;20119;-88
2021/10/24 06:31:29;;;;;;;15.35;6.88;;;5.80;99.90;;;3.62;100.00;101517.13;5010825;28;20052;-87
2021/10/24 06:34:16;;;;;;;18.25;7.40;;;5.90;99.90;;;3.67;100.00;101517.63;5029450;28;20128;-86
2021/10/24 06:37:17;;;;;;;14.13;7.22;;;5.90;99.90;;;3.67;100.00;101513.09;5024755;28;20045;-87
2021/10/24 06:39:44;;;;;;;15.32;7.38;;;5.90;99.90;;;3.68;100.00;101512.13;5027670;28;20053;-85
2021/10/24 06:42:12;;;;;;;16.98;7.88;;;5.90;99.90;;;3.72;100.00;101508.22;5011276;28;20844;-86
2021/10/24 06:45:03;;;;;;;19.17;8.67;;;5.90;99.90;;;3.81;100.00;101514.75;5000398;28;20057;-83
2021/10/24 06:47:49;;;;;;;17.08;8.50;;;6.00;99.90;;;3.84;100.00;101506.44;5028947;28;20060;-90
2021/10/24 06:50:50;;;;;;;17.27;7.93;;;6.00;99.90;;;3.88;100.00;101516.03;4995222;28;20124;-86
2021/10/24 06:53:37;;;;;;;14.70;7.53;;;6.00;99.90;;;3.87;100.00;101518.81;5028590;28;20348;-87
2021/10/24 06:56:23;;;;;;;20.13;8.38;;;6.00;99.90;;;3.80;100.00;101521.09;5028668;28;20076;-87
2021/10/24 06:59:08;;;;;;;14.95;7.35;;;6.10;99.90;;;3.79;100.00;101516.72;5028557;28;20056;-87
2021/10/24 07:01:54;;;;;;;16.13;7.50;;;6.10;99.90;;;3.82;100.00;101518.31;5028474;28;20598;-88
2021/10/24 07:04:40;;;;;;;15.32;7.78;;;6.10;99.90;;;3.85;100.00;101513.53;5028966;28;20052;-86
2021/10/24 07:07:23;;;;;;;17.80;8.35;;;6.10;99.90;;;3.90;100.00;101519.44;5010793;28;20064;-85
2021/10/24 07:09:57;;;;;;;16.45;8.73;;;6.10;99.90;;;4.01;100.00;101513.22;5010816;28;20071;-86
2021/10/24 07:12:24;;;;;;;14.60;8.50;;;6.10;99.90;;;4.06;100.00;101510.19;5028485;28;20041;-86
2021/10/24 07:14:51;;;;;;;18.25;9.30;;;6.10;99.90;;;4.11;100.00;101519.66;5028566;28;20053;-86
2021/10/24 07:17:19;;;;;;;16.63;8.45;;;6.20;99.90;;;4.15;100.00;101514.88;5028283;28;20056;-86
2021/10/24 07:19:46;;;;;;;18.77;9.23;;;6.20;99.90;;;4.25;100.00;101521.25;5009702;28;20077;-85
2021/10/24 07:22:15;;;;;;;14.93;8.50;;;6.20;99.90;;;4.37;100.00;101510.50;5010586;28;20037;-85
2021/10/24 07:25:08;;;;;;;16.60;9.33;;;6.30;99.90;;;4.52;100.00;101512.00;5017521;28;20058;-86
2021/10/24 07:27:41;;;;;;;20.13;10.13;;;6.40;99.90;;;4.64;100.00;101511.03;5010083;28;20133;-85
2021/10/24 07:30:11;;;;;;;18.45;9.30;;;6.40;99.90;;;4.72;100.00;101501.47;5010586;28;20567;-86
2021/10/24 07:32:51;;;;;;;17.50;9.25;;;6.50;99.90;;;4.80;100.00;101509.84;5010347;28;20065;-85
2021/10/24 07:35:36;;;;;;;15.30;7.75;;;6.50;99.90;;;4.90;100.00;101495.47;5027710;28;20305;-86
2021/10/24 07:38:06;;;;;;;16.67;7.90;;;6.70;99.90;;;5.01;100.00;101494.59;5009580;28;20068;-87
2021/10/24 07:40:42;;;;;;;16.70;7.97;;;6.70;99.90;;;5.06;100.00;101497.78;5007440;28;20034;-85
2021/10/24 07:43:14;;;;;;;18.48;7.55;;;6.80;99.90;;;5.14;100.00;101496.28;5010091;28;20042;-84
2021/10/24 07:45:44;;;;;;;15.27;8.45;;;6.90;99.90;;;5.23;100.00;101498.25;5010310;28;20065;-84
2021/10/24 07:48:12;;;;;;;23.48;8.77;;;6.90;99.90;;;5.29;100.00;101500.44;5026527;28;20049;-82
2021/10/24 07:50:40;;;;;;;15.35;7.75;;;7.00;99.90;;;5.35;100.00;101486.47;5022007;28;20118;-83
2021/10/24 07:53:14;;;;;;;17.80;8.35;;;7.00;99.90;;;5.37;100.00;101480.91;5046633;28;20051;-89
2021/10/24 07:55:46;;;;;;;18.98;8.15;;;7.10;99.90;;;5.41;100.00;101483.25;5030270;28;20057;-90
2021/10/24 07:58:33;;;;;;;20.52;9.40;;;7.10;99.90;;;5.44;100.00;101482.97;5046530;28;20055;-85
2021/10/24 08:01:01;;;;;;;16.15;8.13;;;7.20;99.90;;;5.53;100.00;101467.00;5046808;28;20054;-91
2021/10/24 08:03:28;;;;;;;16.17;7.97;;;7.30;99.90;;;5.57;100.00;101472.00;5046960;28;20080;-91
2021/10/24 08:05:58;;;;;;;18.33;8.05;;;7.30;99.90;;;5.68;100.00;101468.41;5029926;28;20055;-90
2021/10/24 08:08:26;;;;;;;15.57;8.25;;;7.40;99.90;;;5.76;100.00;101457.81;5029175;28;20148;-90
2021/10/24 08:10:55;;;;;;;12.88;7.45;;;7.40;99.90;;;5.84;100.00;101455.31;5045595;28;20144;-89
2021/10/24 08:13:24;;;;;;;12.70;7.00;;;7.50;99.90;;;5.93;100.00;101463.63;5046660;28;20052;-90
2021/10/24 08:15:53;;;;;;;12.52;6.90;;;7.50;99.90;;;5.97;100.00;101459.72;5030233;28;20055;-90
2021/10/24 08:18:21;;;;;;;15.10;7.40;;;7.60;99.90;;;6.04;100.00;101455.50;5029780;28;20047;-89
2021/10/24 08:21:07;;;;;;;14.98;7.30;;;7.70;99.90;;;6.12;100.00;101455.69;5035459;28;20135;-90
2021/10/24 08:23:37;;;;;;;14.38;7.18;;;7.70;99.90;;;6.17;100.00;101458.88;5010306;28;20046;-89
2021/10/24 08:26:06;;;;;;;14.07;7.07;;;7.80;99.90;;;6.24;100.00;101445.66;5026842;28;20056;-88
2021/10/24 08:28:33;;;;;;;19.40;7.38;;;7.80;99.90;;;6.30;100.00;101452.38;5010103;28;20410;-89
2021/10/24 08:31:03;;;;;;;11.80;7.05;;;7.90;99.90;;;6.36;100.00;101452.72;5028491;28;20041;-89
2021/10/24 08:33:36;;;;;;;14.05;6.95;;;8.00;99.90;;;6.44;100.00;101449.34;5010548;28;20053;-90
2021/10/24 08:36:04;;;;;;;11.68;6.55;;;8.00;99.90;;;6.52;100.00;101440.56;5028159;28;20065;-90
2021/10/24 08:38:32;;;;;;;11.50;6.35;;;8.10;99.90;;;6.60;100.00;101438.00;5009901;28;20041;-89
2021/10/24 08:41:02;;;;;;;14.05;5.13;;;8.20;99.90;;;6.72;100.00;101434.22;5028121;28;20045;-92
2021/10/24 08:43:35;;;;;;;10.10;3.90;;;8.30;99.90;;;6.90;100.00;101445.25;5027312;28;20056;-91
2021/10/24 08:46:11;;;;;;;8.57;3.92;;;8.40;99.90;;;7.03;100.00;101435.03;5028444;28;20063;-91
2021/10/24 08:48:39;;;;;;;9.25;3.58;;;8.50;99.80;;;7.14;100.00;101425.94;5009850;28;20157;-90
2021/10/24 08:51:06;;;;;;;7.78;3.20;;;8.60;99.80;;;7.23;100.00;101418.81;5028376;28;20048;-91
2021/10/24 08:53:35;;;;;;;7.00;2.97;;;8.70;99.90;;;7.31;99.65;101418.97;5050048;28;20041;-90
2021/10/24 08:56:03;;;;;;;8.23;3.30;;;8.80;99.00;;;7.39;99.16;101418.28;5045748;28;20176;-90
2021/10/24 08:58:32;;;;;;;11.50;3.47;;;8.90;98.60;;;7.46;99.10;101413.97;5021965;28;20034;-91
2021/10/24 09:00:59;;;;;;;7.78;3.45;;;9.00;98.30;;;7.57;98.19;101421.13;5011647;28;20108;-91
2021/10/24 09:03:27;;;;;;;8.68;3.63;;;9.10;97.20;;;7.67;96.32;101419.25;5011127;28;20565;-89
2021/10/24 09:05:54;;;;;;;8.15;3.17;;;9.20;95.70;;;7.73;96.21;101410.56;5010134;28;20092;-91
2021/10/24 09:08:24;;;;;;;6.88;3.10;;;9.30;96.20;;;7.75;96.74;101408.56;4993640;28;20554;-91
2021/10/24 09:10:54;;;;;;;9.15;2.58;;;9.30;96.90;;;7.79;95.16;101410.00;4995377;28;20053;-90
2021/10/24 09:13:24;;;;;;;6.40;2.90;;;9.40;95.90;;;7.81;94.65;101405.28;5018059;28;20045;-90
2021/10/24 09:15:57;;;;;;;7.95;3.30;;;9.40;95.90;;;7.86;94.47;101399.41;5023109;28;20087;-90
2021/10/24 09:18:32;;;;;;;8.77;2.88;;;9.50;95.70;;;7.94;93.91;101406.81;5012418;28;20124;-90
2021/10/24 09:21:25;;;;;;;7.93;3.00;;;9.60;95.30;;;7.99;93.22;101397.25;5012964;28;20410;-90
2021/10/24 09:23:54;;;;;;;10.85;3.35;;;9.60;93.90;;;8.03;92.64;101393.25;5012919;28;20053;-90
2021/10/24 09:26:24;;;;;;;6.20;2.78;;;9.70;94.40;;;8.07;91.86;101393.81;5030350;28;20516;-90
2021/10/24 09:29:02;;;;;;;7.03;2.78;;;9.70;93.40;;;8.11;90.44;101392.53;5028410;28;20124;-91
2021/10/24 09:31:33;;;;;;;7.93;2.97;;;9.80;91.70;;;8.18;90.44;101381.94;5025534;28;20642;-91
2021/10/24 09:34:17;;;;;;;8.63;3.00;;;9.80;92.60;;;8.23;90.30;101380.50;5029467;28;20055;-89
2021/10/24 09:36:56;;;;;;;6.10;3.03;;;9.80;92.30;;;8.28;89.98;101371.94;5011021;28;20121;-90
2021/10/24 09:39:44;;;;;;;7.53;2.63;;;9.90;92.40;;;8.27;88.64;101375.63;5003503;28;20417;-90
2021/10/24 09:42:14;;;;;;;8.07;2.67;;;10.00;91.30;;;8.35;87.63;101364.88;4994763;28;20175;-89
2021/10/24 09:45:05;;;;;;;9.02;3.10;;;10.00;90.00;;;8.41;88.77;101367.06;5012053;28;20125;-90
2021/10/24 09:47:36;;;;;;;8.30;3.35;;;10.00;91.00;;;8.48;87.75;101367.28;4995464;28;20045;-91
2021/10/24 09:50:04;;;;;;;8.77;2.65;;;10.10;90.90;;;8.53;87.35;101369.53;5027532;28;20116;-90
2021/10/24 09:52:32;;;;;;;11.65;3.00;;;10.20;90.10;;;8.60;87.48;101363.41;5039701;28;20045;-90
2021/10/24 09:55:18;;;;;;;8.27;2.83;;;10.30;90.70;;;8.60;88.05;101360.69;5021016;28;20044;-89
2021/10/24 09:57:46;;;;;;;7.40;2.80;;;10.30;90.60;;;8.64;88.70;101360.34;5026188;28;20063;-91
2021/10/24 10:00:14;;;;;;;9.20;2.90;;;10.30;90.30;;;8.68;87.43;101367.19;5026357;28;20045;-90
2021/10/24 10:02:46;;;;;;;10.35;2.90;;;10.40;89.90;;;8.71;87.66;101356.03;5013207;28;20761;-90
2021/10/24 10:05:17;;;;;;;;;;;10.40;90.00;;;8.74;86.00;101358.47;5011276;28;20057;-93
2021/10/24 10:07:56;;;;;;;7.10;2.75;;;10.50;89.50;;;8.82;85.26;101358.56;5041977;28;19928;-95
2021/10/24 10:10:59;;;;;;;7.68;2.50;;;10.50;89.30;;;8.88;85.23;101357.94;5029621;28;20048;-92
2021/10/24 10:13:30;;;;;;;8.80;2.95;;;10.60;88.90;;;8.94;86.14;101356.47;5042249;28;20038;-91
2021/10/24 10:19:09;;;;;;;8.70;3.10;;;10.70;88.00;;;9.02;84.42;101352.97;5010821;28;20061;-91
2021/10/24 10:21:39;;;;;;;7.18;3.00;;;10.80;87.40;;;9.03;84.97;101346.56;4991456;28;20053;-91
2021/10/24 10:24:17;;;;;;;8.32;2.97;;;10.80;88.20;;;9.05;84.63;101344.53;4989123;28;20502;-91
2021/10/24 10:47:53;;;;;;;8.65;2.70;;;11.10;86.70;;;9.36;82.90;101310.53;5043713;28;20053;-89
2021/10/24 10:50:47;;;;;;;6.63;2.58;;;11.10;86.90;;;9.39;83.45;101317.53;5042143;28;20041;-93
2021/10/24 11:01:40;;;;;;;7.63;2.70;;;11.20;86.10;;;9.51;82.81;101299.94;4891741;29;20579;-93
2021/10/24 11:17:36;;;;;;;5.05;2.00;;;11.50;85.60;;;9.80;80.53;101282.47;4739794;30;20093;-93
2021/10/24 11:20:41;;;;;;;10.90;2.50;;;11.60;85.20;;;9.77;79.92;101278.22;4865948;29;20056;-91